sensor_id;sensor_type;location;lat;lon;timestamp;P1;durP1;ratioP1;P2;durP2;ratioP2
52668;SDS011;59898;52.786;6.892;2023-02-23T00:01:28;58.90;;;36.35;;
52668;SDS011;59898;52.786;6.892;2023-02-23T00:04:49;63.40;;;39.95;;
52668;SDS011;59898;52.786;6.892;2023-02-23T00:08:10;62.33;;;37.00;;
52668;SDS011;59898;52.786;6.892;2023-02-23T00:11:31;58.53;;;37.35;;
52668;SDS011;59898;52.786;6.892;2023-02-23T00:14:52;60.00;;;39.42;;
52668;SDS011;59898;52.786;6.892;2023-02-23T00:18:13;68.40;;;38.67;;
52668;SDS011;59898;52.786;6.892;2023-02-23T00:21:34;66.80;;;39.78;;
52668;SDS011;59898;52.786;6.892;2023-02-23T00:24:54;59.90;;;38.17;;
52668;SDS011;59898;52.786;6.892;2023-02-23T00:28:16;62.17;;;36.70;;
52668;SDS011;59898;52.786;6.892;2023-02-23T00:31:37;55.38;;;35.20;;
52668;SDS011;59898;52.786;6.892;2023-02-23T00:34:58;61.70;;;38.03;;
52668;SDS011;59898;52.786;6.892;2023-02-23T00:38:19;66.85;;;37.90;;
52668;SDS011;59898;52.786;6.892;2023-02-23T00:41:39;63.92;;;38.80;;
52668;SDS011;59898;52.786;6.892;2023-02-23T00:45:01;62.60;;;36.80;;
52668;SDS011;59898;52.786;6.892;2023-02-23T00:48:27;64.00;;;38.45;;
52668;SDS011;59898;52.786;6.892;2023-02-23T00:51:48;65.32;;;38.95;;
52668;SDS011;59898;52.786;6.892;2023-02-23T00:55:10;59.40;;;36.72;;
52668;SDS011;59898;52.786;6.892;2023-02-23T00:58:32;65.70;;;40.10;;
52668;SDS011;59898;52.786;6.892;2023-02-23T01:01:53;74.70;;;39.63;;
52668;SDS011;59898;52.786;6.892;2023-02-23T01:05:14;68.18;;;38.72;;
52668;SDS011;59898;52.786;6.892;2023-02-23T01:08:36;67.78;;;39.22;;
52668;SDS011;59898;52.786;6.892;2023-02-23T01:15:26;70.65;;;42.17;;
52668;SDS011;59898;52.786;6.892;2023-02-23T01:18:47;69.32;;;41.03;;
52668;SDS011;59898;52.786;6.892;2023-02-23T01:22:08;67.40;;;39.65;;
52668;SDS011;59898;52.786;6.892;2023-02-23T01:25:29;61.13;;;40.03;;
52668;SDS011;59898;52.786;6.892;2023-02-23T01:28:54;63.38;;;39.17;;
52668;SDS011;59898;52.786;6.892;2023-02-23T01:32:19;70.38;;;39.17;;
52668;SDS011;59898;52.786;6.892;2023-02-23T01:35:40;67.43;;;40.90;;
52668;SDS011;59898;52.786;6.892;2023-02-23T01:39:03;68.57;;;42.43;;
52668;SDS011;59898;52.786;6.892;2023-02-23T01:42:26;67.50;;;39.47;;
52668;SDS011;59898;52.786;6.892;2023-02-23T01:45:47;68.00;;;40.58;;
52668;SDS011;59898;52.786;6.892;2023-02-23T01:49:10;72.43;;;41.55;;
52668;SDS011;59898;52.786;6.892;2023-02-23T01:52:39;66.40;;;41.08;;
52668;SDS011;59898;52.786;6.892;2023-02-23T01:56:00;69.63;;;42.80;;
52668;SDS011;59898;52.786;6.892;2023-02-23T01:59:40;70.38;;;41.97;;
52668;SDS011;59898;52.786;6.892;2023-02-23T02:03:03;66.40;;;40.53;;
52668;SDS011;59898;52.786;6.892;2023-02-23T02:06:31;63.03;;;40.95;;
52668;SDS011;59898;52.786;6.892;2023-02-23T02:09:55;70.93;;;39.22;;
52668;SDS011;59898;52.786;6.892;2023-02-23T02:13:31;68.03;;;42.15;;
52668;SDS011;59898;52.786;6.892;2023-02-23T02:31:55;70.38;;;42.75;;
52668;SDS011;59898;52.786;6.892;2023-02-23T02:35:48;71.03;;;42.10;;
52668;SDS011;59898;52.786;6.892;2023-02-23T02:46:34;69.05;;;41.17;;
52668;SDS011;59898;52.786;6.892;2023-02-23T02:57:14;74.07;;;42.17;;
52668;SDS011;59898;52.786;6.892;2023-02-23T03:00:37;75.95;;;45.28;;
52668;SDS011;59898;52.786;6.892;2023-02-23T03:04:20;75.60;;;43.58;;
52668;SDS011;59898;52.786;6.892;2023-02-23T03:11:43;77.22;;;47.85;;
52668;SDS011;59898;52.786;6.892;2023-02-23T03:16:01;84.03;;;46.63;;
52668;SDS011;59898;52.786;6.892;2023-02-23T03:23:51;77.20;;;42.28;;
52668;SDS011;59898;52.786;6.892;2023-02-23T03:32:11;82.57;;;45.88;;
52668;SDS011;59898;52.786;6.892;2023-02-23T03:40:08;83.70;;;47.40;;
52668;SDS011;59898;52.786;6.892;2023-02-23T03:44:12;77.15;;;42.88;;
52668;SDS011;59898;52.786;6.892;2023-02-23T03:47:56;81.70;;;45.08;;
52668;SDS011;59898;52.786;6.892;2023-02-23T03:51:39;93.00;;;46.83;;
52668;SDS011;59898;52.786;6.892;2023-02-23T03:55:21;77.90;;;45.17;;
52668;SDS011;59898;52.786;6.892;2023-02-23T03:59:06;86.53;;;47.30;;
52668;SDS011;59898;52.786;6.892;2023-02-23T04:02:47;82.65;;;44.88;;
52668;SDS011;59898;52.786;6.892;2023-02-23T04:06:31;78.30;;;44.78;;
52668;SDS011;59898;52.786;6.892;2023-02-23T04:10:14;80.30;;;43.67;;
52668;SDS011;59898;52.786;6.892;2023-02-23T04:13:53;82.47;;;46.30;;
52668;SDS011;59898;52.786;6.892;2023-02-23T04:17:22;75.72;;;43.05;;
52668;SDS011;59898;52.786;6.892;2023-02-23T04:20:46;78.28;;;45.63;;
52668;SDS011;59898;52.786;6.892;2023-02-23T04:24:07;80.72;;;45.22;;
52668;SDS011;59898;52.786;6.892;2023-02-23T04:27:29;84.27;;;45.87;;
52668;SDS011;59898;52.786;6.892;2023-02-23T04:30:50;89.00;;;47.05;;
52668;SDS011;59898;52.786;6.892;2023-02-23T04:34:11;82.53;;;44.92;;
52668;SDS011;59898;52.786;6.892;2023-02-23T04:37:33;80.97;;;45.90;;
52668;SDS011;59898;52.786;6.892;2023-02-23T04:40:54;89.30;;;44.80;;
52668;SDS011;59898;52.786;6.892;2023-02-23T04:44:15;77.82;;;41.95;;
52668;SDS011;59898;52.786;6.892;2023-02-23T04:47:36;77.30;;;46.13;;
52668;SDS011;59898;52.786;6.892;2023-02-23T04:50:57;81.55;;;42.35;;
52668;SDS011;59898;52.786;6.892;2023-02-23T04:54:17;83.25;;;43.75;;
52668;SDS011;59898;52.786;6.892;2023-02-23T04:57:38;76.32;;;42.45;;
52668;SDS011;59898;52.786;6.892;2023-02-23T05:01:05;79.65;;;43.83;;
52668;SDS011;59898;52.786;6.892;2023-02-23T05:04:28;82.32;;;43.83;;
52668;SDS011;59898;52.786;6.892;2023-02-23T05:07:49;74.63;;;42.28;;
52668;SDS011;59898;52.786;6.892;2023-02-23T05:11:10;79.15;;;43.47;;
52668;SDS011;59898;52.786;6.892;2023-02-23T05:14:31;84.68;;;44.05;;
52668;SDS011;59898;52.786;6.892;2023-02-23T05:17:52;71.00;;;41.13;;
52668;SDS011;59898;52.786;6.892;2023-02-23T05:21:14;69.18;;;42.08;;
52668;SDS011;59898;52.786;6.892;2023-02-23T05:24:35;74.50;;;41.83;;
52668;SDS011;59898;52.786;6.892;2023-02-23T05:27:56;80.53;;;43.60;;
52668;SDS011;59898;52.786;6.892;2023-02-23T05:31:16;76.50;;;42.42;;
52668;SDS011;59898;52.786;6.892;2023-02-23T05:34:37;78.10;;;42.28;;
52668;SDS011;59898;52.786;6.892;2023-02-23T05:37:58;81.10;;;43.63;;
52668;SDS011;59898;52.786;6.892;2023-02-23T05:41:19;73.75;;;41.53;;
52668;SDS011;59898;52.786;6.892;2023-02-23T05:44:40;76.85;;;40.92;;
52668;SDS011;59898;52.786;6.892;2023-02-23T05:48:01;84.03;;;45.90;;
52668;SDS011;59898;52.786;6.892;2023-02-23T05:51:22;79.70;;;43.08;;
52668;SDS011;59898;52.786;6.892;2023-02-23T05:54:43;79.68;;;42.30;;
52668;SDS011;59898;52.786;6.892;2023-02-23T05:58:05;73.00;;;43.57;;
52668;SDS011;59898;52.786;6.892;2023-02-23T06:01:26;81.18;;;43.30;;
52668;SDS011;59898;52.786;6.892;2023-02-23T06:04:47;80.57;;;42.65;;
52668;SDS011;59898;52.786;6.892;2023-02-23T06:08:08;75.57;;;41.88;;
52668;SDS011;59898;52.786;6.892;2023-02-23T06:11:28;82.10;;;45.60;;
52668;SDS011;59898;52.786;6.892;2023-02-23T06:14:50;86.05;;;45.80;;
52668;SDS011;59898;52.786;6.892;2023-02-23T06:18:11;72.35;;;39.15;;
52668;SDS011;59898;52.786;6.892;2023-02-23T06:21:32;82.95;;;42.05;;
52668;SDS011;59898;52.786;6.892;2023-02-23T06:24:53;74.43;;;39.20;;
52668;SDS011;59898;52.786;6.892;2023-02-23T06:28:13;78.10;;;40.35;;
52668;SDS011;59898;52.786;6.892;2023-02-23T06:31:34;72.65;;;41.05;;
52668;SDS011;59898;52.786;6.892;2023-02-23T06:34:55;78.65;;;41.00;;
52668;SDS011;59898;52.786;6.892;2023-02-23T06:38:15;68.50;;;38.00;;
52668;SDS011;59898;52.786;6.892;2023-02-23T06:41:36;72.47;;;36.35;;
52668;SDS011;59898;52.786;6.892;2023-02-23T06:44:57;64.72;;;35.00;;
52668;SDS011;59898;52.786;6.892;2023-02-23T06:48:18;73.30;;;36.60;;
52668;SDS011;59898;52.786;6.892;2023-02-23T06:51:38;67.50;;;35.92;;
52668;SDS011;59898;52.786;6.892;2023-02-23T06:54:59;67.32;;;36.22;;
52668;SDS011;59898;52.786;6.892;2023-02-23T06:58:20;59.15;;;31.25;;
52668;SDS011;59898;52.786;6.892;2023-02-23T07:01:40;52.10;;;29.88;;
52668;SDS011;59898;52.786;6.892;2023-02-23T07:05:03;50.60;;;28.55;;
52668;SDS011;59898;52.786;6.892;2023-02-23T07:08:24;54.78;;;29.65;;
52668;SDS011;59898;52.786;6.892;2023-02-23T07:11:45;59.28;;;30.73;;
52668;SDS011;59898;52.786;6.892;2023-02-23T07:15:06;52.67;;;30.73;;
52668;SDS011;59898;52.786;6.892;2023-02-23T07:18:27;54.47;;;29.45;;
52668;SDS011;59898;52.786;6.892;2023-02-23T07:21:48;54.15;;;30.20;;
52668;SDS011;59898;52.786;6.892;2023-02-23T07:25:08;48.35;;;28.45;;
52668;SDS011;59898;52.786;6.892;2023-02-23T07:28:29;52.08;;;29.25;;
52668;SDS011;59898;52.786;6.892;2023-02-23T07:31:50;50.42;;;27.90;;
52668;SDS011;59898;52.786;6.892;2023-02-23T07:35:11;52.50;;;30.27;;
52668;SDS011;59898;52.786;6.892;2023-02-23T07:38:32;52.72;;;30.63;;
52668;SDS011;59898;52.786;6.892;2023-02-23T07:41:52;47.90;;;29.02;;
52668;SDS011;59898;52.786;6.892;2023-02-23T07:45:13;51.40;;;29.65;;
52668;SDS011;59898;52.786;6.892;2023-02-23T07:48:35;52.30;;;30.17;;
52668;SDS011;59898;52.786;6.892;2023-02-23T07:51:57;49.17;;;29.40;;
52668;SDS011;59898;52.786;6.892;2023-02-23T07:55:19;48.42;;;27.48;;
52668;SDS011;59898;52.786;6.892;2023-02-23T07:58:40;43.63;;;24.52;;
52668;SDS011;59898;52.786;6.892;2023-02-23T08:02:02;49.90;;;26.80;;
52668;SDS011;59898;52.786;6.892;2023-02-23T08:05:24;51.22;;;28.30;;
52668;SDS011;59898;52.786;6.892;2023-02-23T08:08:45;42.53;;;23.67;;
52668;SDS011;59898;52.786;6.892;2023-02-23T08:12:06;41.42;;;23.95;;
52668;SDS011;59898;52.786;6.892;2023-02-23T08:15:27;38.88;;;22.92;;
52668;SDS011;59898;52.786;6.892;2023-02-23T08:18:47;51.58;;;25.48;;
52668;SDS011;59898;52.786;6.892;2023-02-23T08:22:08;41.53;;;25.35;;
52668;SDS011;59898;52.786;6.892;2023-02-23T08:25:29;47.40;;;25.92;;
52668;SDS011;59898;52.786;6.892;2023-02-23T08:28:50;39.33;;;23.95;;
52668;SDS011;59898;52.786;6.892;2023-02-23T08:32:11;44.53;;;23.42;;
52668;SDS011;59898;52.786;6.892;2023-02-23T08:35:32;40.28;;;23.73;;
52668;SDS011;59898;52.786;6.892;2023-02-23T08:38:53;41.03;;;25.20;;
52668;SDS011;59898;52.786;6.892;2023-02-23T08:42:15;47.15;;;25.05;;
52668;SDS011;59898;52.786;6.892;2023-02-23T08:45:37;41.80;;;24.48;;
52668;SDS011;59898;52.786;6.892;2023-02-23T08:48:58;44.78;;;24.55;;
52668;SDS011;59898;52.786;6.892;2023-02-23T08:52:19;39.33;;;23.00;;
52668;SDS011;59898;52.786;6.892;2023-02-23T08:55:40;40.65;;;23.58;;
52668;SDS011;59898;52.786;6.892;2023-02-23T08:59:01;37.95;;;21.65;;
52668;SDS011;59898;52.786;6.892;2023-02-23T09:02:22;42.97;;;24.17;;
52668;SDS011;59898;52.786;6.892;2023-02-23T09:05:43;39.00;;;23.08;;
52668;SDS011;59898;52.786;6.892;2023-02-23T09:09:04;38.95;;;23.10;;
52668;SDS011;59898;52.786;6.892;2023-02-23T09:12:25;38.50;;;20.98;;
52668;SDS011;59898;52.786;6.892;2023-02-23T09:15:46;42.65;;;23.52;;
52668;SDS011;59898;52.786;6.892;2023-02-23T09:19:07;33.90;;;22.10;;
52668;SDS011;59898;52.786;6.892;2023-02-23T09:22:27;41.88;;;21.90;;
52668;SDS011;59898;52.786;6.892;2023-02-23T09:25:48;40.30;;;22.30;;
52668;SDS011;59898;52.786;6.892;2023-02-23T09:29:09;45.13;;;24.90;;
52668;SDS011;59898;52.786;6.892;2023-02-23T09:32:29;49.00;;;27.42;;
52668;SDS011;59898;52.786;6.892;2023-02-23T09:35:50;35.90;;;21.10;;
52668;SDS011;59898;52.786;6.892;2023-02-23T09:39:11;46.35;;;23.85;;
52668;SDS011;59898;52.786;6.892;2023-02-23T09:42:44;44.88;;;23.58;;
52668;SDS011;59898;52.786;6.892;2023-02-23T09:50:16;43.03;;;23.45;;
52668;SDS011;59898;52.786;6.892;2023-02-23T09:53:42;34.25;;;20.73;;
52668;SDS011;59898;52.786;6.892;2023-02-23T09:57:13;37.90;;;21.10;;
52668;SDS011;59898;52.786;6.892;2023-02-23T10:00:39;37.22;;;21.63;;
52668;SDS011;59898;52.786;6.892;2023-02-23T10:04:11;41.03;;;22.55;;
52668;SDS011;59898;52.786;6.892;2023-02-23T10:07:44;40.65;;;25.80;;
52668;SDS011;59898;52.786;6.892;2023-02-23T10:11:22;46.03;;;27.33;;
52668;SDS011;59898;52.786;6.892;2023-02-23T10:22:09;34.80;;;19.98;;
52668;SDS011;59898;52.786;6.892;2023-02-23T10:25:34;37.78;;;20.33;;
52668;SDS011;59898;52.786;6.892;2023-02-23T10:29:00;38.13;;;20.10;;
52668;SDS011;59898;52.786;6.892;2023-02-23T10:32:37;33.30;;;19.65;;
52668;SDS011;59898;52.786;6.892;2023-02-23T10:35:59;31.38;;;18.63;;
52668;SDS011;59898;52.786;6.892;2023-02-23T10:39:48;34.28;;;19.10;;
52668;SDS011;59898;52.786;6.892;2023-02-23T10:43:11;29.53;;;18.80;;
52668;SDS011;59898;52.786;6.892;2023-02-23T10:46:34;35.92;;;19.83;;
52668;SDS011;59898;52.786;6.892;2023-02-23T10:49:58;32.78;;;18.98;;
52668;SDS011;59898;52.786;6.892;2023-02-23T10:53:24;33.28;;;19.30;;
52668;SDS011;59898;52.786;6.892;2023-02-23T10:56:46;38.33;;;19.70;;
52668;SDS011;59898;52.786;6.892;2023-02-23T11:10:37;34.17;;;18.98;;
52668;SDS011;59898;52.786;6.892;2023-02-23T11:13:58;34.17;;;18.60;;
52668;SDS011;59898;52.786;6.892;2023-02-23T11:17:35;42.08;;;19.75;;
52668;SDS011;59898;52.786;6.892;2023-02-23T11:20:57;30.70;;;18.05;;
52668;SDS011;59898;52.786;6.892;2023-02-23T11:24:23;35.83;;;19.13;;
52668;SDS011;59898;52.786;6.892;2023-02-23T11:27:51;36.05;;;18.70;;
52668;SDS011;59898;52.786;6.892;2023-02-23T11:31:13;32.15;;;17.75;;
52668;SDS011;59898;52.786;6.892;2023-02-23T11:34:38;56.65;;;32.55;;
52668;SDS011;59898;52.786;6.892;2023-02-23T11:41:41;36.28;;;18.80;;
52668;SDS011;59898;52.786;6.892;2023-02-23T11:48:26;36.15;;;18.67;;
52668;SDS011;59898;52.786;6.892;2023-02-23T11:51:52;36.17;;;19.17;;
52668;SDS011;59898;52.786;6.892;2023-02-23T11:55:15;39.50;;;20.20;;
52668;SDS011;59898;52.786;6.892;2023-02-23T11:58:42;37.35;;;20.85;;
52668;SDS011;59898;52.786;6.892;2023-02-23T12:02:20;37.72;;;20.42;;
52668;SDS011;59898;52.786;6.892;2023-02-23T12:05:45;41.35;;;20.15;;
52668;SDS011;59898;52.786;6.892;2023-02-23T12:09:15;39.08;;;21.27;;
52668;SDS011;59898;52.786;6.892;2023-02-23T12:13:08;35.75;;;19.95;;
52668;SDS011;59898;52.786;6.892;2023-02-23T12:16:35;49.22;;;22.08;;
52668;SDS011;59898;52.786;6.892;2023-02-23T12:20:01;39.60;;;21.63;;
52668;SDS011;59898;52.786;6.892;2023-02-23T12:23:30;47.53;;;22.52;;
52668;SDS011;59898;52.786;6.892;2023-02-23T12:27:15;47.45;;;23.25;;
52668;SDS011;59898;52.786;6.892;2023-02-23T12:30:59;53.45;;;23.88;;
52668;SDS011;59898;52.786;6.892;2023-02-23T12:34:44;48.33;;;24.92;;
52668;SDS011;59898;52.786;6.892;2023-02-23T12:38:30;54.47;;;24.85;;
52668;SDS011;59898;52.786;6.892;2023-02-23T13:00:27;51.75;;;24.40;;
52668;SDS011;59898;52.786;6.892;2023-02-23T13:04:15;56.05;;;25.98;;
52668;SDS011;59898;52.786;6.892;2023-02-23T13:07:44;47.55;;;25.38;;
52668;SDS011;59898;52.786;6.892;2023-02-23T13:11:26;52.05;;;25.45;;
52668;SDS011;59898;52.786;6.892;2023-02-23T13:18:45;56.22;;;27.25;;
52668;SDS011;59898;52.786;6.892;2023-02-23T13:22:25;55.65;;;26.50;;
52668;SDS011;59898;52.786;6.892;2023-02-23T13:29:33;47.10;;;23.42;;
52668;SDS011;59898;52.786;6.892;2023-02-23T13:33:01;50.90;;;25.48;;
52668;SDS011;59898;52.786;6.892;2023-02-23T13:36:31;43.35;;;21.60;;
52668;SDS011;59898;52.786;6.892;2023-02-23T13:43:55;40.20;;;18.13;;
52668;SDS011;59898;52.786;6.892;2023-02-23T13:51:00;45.55;;;18.52;;
52668;SDS011;59898;52.786;6.892;2023-02-23T13:54:23;44.30;;;19.80;;
52668;SDS011;59898;52.786;6.892;2023-02-23T13:58:04;43.08;;;20.17;;
52668;SDS011;59898;52.786;6.892;2023-02-23T14:01:35;47.75;;;19.73;;
52668;SDS011;59898;52.786;6.892;2023-02-23T14:05:40;50.08;;;19.85;;
52668;SDS011;59898;52.786;6.892;2023-02-23T14:08:50;40.33;;;19.50;;
52668;SDS011;59898;52.786;6.892;2023-02-23T14:12:15;46.85;;;19.05;;
52668;SDS011;59898;52.786;6.892;2023-02-23T14:15:46;39.47;;;19.00;;
52668;SDS011;59898;52.786;6.892;2023-02-23T14:19:34;44.45;;;21.60;;
52668;SDS011;59898;52.786;6.892;2023-02-23T14:27:04;44.38;;;19.17;;
52668;SDS011;59898;52.786;6.892;2023-02-23T14:30:28;51.15;;;20.77;;
52668;SDS011;59898;52.786;6.892;2023-02-23T14:34:11;54.80;;;20.13;;
52668;SDS011;59898;52.786;6.892;2023-02-23T14:37:41;51.80;;;18.23;;
52668;SDS011;59898;52.786;6.892;2023-02-23T14:41:13;51.95;;;24.98;;
52668;SDS011;59898;52.786;6.892;2023-02-23T14:44:40;76.28;;;28.88;;
52668;SDS011;59898;52.786;6.892;2023-02-23T14:48:09;52.65;;;21.80;;
52668;SDS011;59898;52.786;6.892;2023-02-23T14:51:39;54.60;;;23.38;;
52668;SDS011;59898;52.786;6.892;2023-02-23T14:55:14;61.50;;;24.30;;
52668;SDS011;59898;52.786;6.892;2023-02-23T14:58:40;52.63;;;23.38;;
52668;SDS011;59898;52.786;6.892;2023-02-23T15:02:05;59.35;;;23.33;;
52668;SDS011;59898;52.786;6.892;2023-02-23T15:05:41;58.92;;;24.25;;
52668;SDS011;59898;52.786;6.892;2023-02-23T15:09:09;68.35;;;24.65;;
52668;SDS011;59898;52.786;6.892;2023-02-23T15:12:39;35.30;;;12.48;;
52668;SDS011;59898;52.786;6.892;2023-02-23T15:16:00;30.13;;;10.73;;
52668;SDS011;59898;52.786;6.892;2023-02-23T15:19:25;25.02;;;9.50;;
52668;SDS011;59898;52.786;6.892;2023-02-23T15:22:52;26.08;;;9.40;;
52668;SDS011;59898;52.786;6.892;2023-02-23T15:29:50;19.05;;;7.43;;
52668;SDS011;59898;52.786;6.892;2023-02-23T15:33:12;22.80;;;8.43;;
52668;SDS011;59898;52.786;6.892;2023-02-23T15:36:34;21.40;;;7.32;;
52668;SDS011;59898;52.786;6.892;2023-02-23T15:40:02;24.63;;;7.50;;
52668;SDS011;59898;52.786;6.892;2023-02-23T15:43:25;32.00;;;8.13;;
52668;SDS011;59898;52.786;6.892;2023-02-23T15:46:50;22.98;;;7.00;;
52668;SDS011;59898;52.786;6.892;2023-02-23T15:50:15;19.50;;;6.40;;
52668;SDS011;59898;52.786;6.892;2023-02-23T15:53:43;30.85;;;7.65;;
52668;SDS011;59898;52.786;6.892;2023-02-23T15:57:13;31.50;;;7.57;;
52668;SDS011;59898;52.786;6.892;2023-02-23T16:01:09;20.10;;;6.28;;
52668;SDS011;59898;52.786;6.892;2023-02-23T16:04:32;19.33;;;6.47;;
52668;SDS011;59898;52.786;6.892;2023-02-23T16:08:03;25.05;;;7.53;;
52668;SDS011;59898;52.786;6.892;2023-02-23T16:11:41;42.75;;;18.80;;
52668;SDS011;59898;52.786;6.892;2023-02-23T16:15:23;31.77;;;11.98;;
52668;SDS011;59898;52.786;6.892;2023-02-23T16:18:52;31.13;;;7.85;;
52668;SDS011;59898;52.786;6.892;2023-02-23T16:22:21;31.00;;;6.72;;
52668;SDS011;59898;52.786;6.892;2023-02-23T16:25:44;22.77;;;5.80;;
52668;SDS011;59898;52.786;6.892;2023-02-23T16:29:05;27.55;;;7.35;;
52668;SDS011;59898;52.786;6.892;2023-02-23T16:32:34;19.77;;;6.50;;
52668;SDS011;59898;52.786;6.892;2023-02-23T16:39:30;32.28;;;7.80;;
52668;SDS011;59898;52.786;6.892;2023-02-23T16:46:19;23.50;;;7.97;;
52668;SDS011;59898;52.786;6.892;2023-02-23T16:49:42;26.05;;;7.35;;
52668;SDS011;59898;52.786;6.892;2023-02-23T16:53:03;23.17;;;7.90;;
52668;SDS011;59898;52.786;6.892;2023-02-23T16:56:25;23.60;;;7.32;;
52668;SDS011;59898;52.786;6.892;2023-02-23T16:59:47;31.00;;;6.40;;
52668;SDS011;59898;52.786;6.892;2023-02-23T17:03:20;38.27;;;7.27;;
52668;SDS011;59898;52.786;6.892;2023-02-23T17:06:43;21.95;;;5.65;;
52668;SDS011;59898;52.786;6.892;2023-02-23T17:10:16;21.88;;;5.68;;
52668;SDS011;59898;52.786;6.892;2023-02-23T17:13:44;20.27;;;6.35;;
52668;SDS011;59898;52.786;6.892;2023-02-23T17:17:07;24.08;;;6.38;;
52668;SDS011;59898;52.786;6.892;2023-02-23T17:20:33;20.23;;;6.40;;
52668;SDS011;59898;52.786;6.892;2023-02-23T17:23:54;25.45;;;6.93;;
52668;SDS011;59898;52.786;6.892;2023-02-23T17:27:21;42.90;;;16.00;;
52668;SDS011;59898;52.786;6.892;2023-02-23T17:30:42;28.58;;;7.47;;
52668;SDS011;59898;52.786;6.892;2023-02-23T17:34:03;24.92;;;6.50;;
52668;SDS011;59898;52.786;6.892;2023-02-23T17:37:24;22.65;;;6.20;;
52668;SDS011;59898;52.786;6.892;2023-02-23T17:40:45;24.50;;;5.60;;
52668;SDS011;59898;52.786;6.892;2023-02-23T17:44:06;18.70;;;5.72;;
52668;SDS011;59898;52.786;6.892;2023-02-23T17:47:31;19.67;;;5.85;;
52668;SDS011;59898;52.786;6.892;2023-02-23T17:50:57;35.58;;;6.45;;
52668;SDS011;59898;52.786;6.892;2023-02-23T17:54:20;25.25;;;7.20;;
52668;SDS011;59898;52.786;6.892;2023-02-23T17:57:40;20.38;;;6.53;;
52668;SDS011;59898;52.786;6.892;2023-02-23T18:01:04;34.47;;;5.73;;
52668;SDS011;59898;52.786;6.892;2023-02-23T18:04:26;16.42;;;5.43;;
52668;SDS011;59898;52.786;6.892;2023-02-23T18:07:46;25.10;;;6.28;;
52668;SDS011;59898;52.786;6.892;2023-02-23T18:11:07;14.90;;;5.38;;
52668;SDS011;59898;52.786;6.892;2023-02-23T18:14:28;23.73;;;8.02;;
52668;SDS011;59898;52.786;6.892;2023-02-23T18:17:49;23.85;;;5.65;;
52668;SDS011;59898;52.786;6.892;2023-02-23T18:21:17;22.38;;;6.10;;
52668;SDS011;59898;52.786;6.892;2023-02-23T18:24:39;32.08;;;6.07;;
52668;SDS011;59898;52.786;6.892;2023-02-23T18:28:01;22.10;;;5.07;;
52668;SDS011;59898;52.786;6.892;2023-02-23T18:31:22;20.05;;;4.80;;
52668;SDS011;59898;52.786;6.892;2023-02-23T18:34:46;26.20;;;6.88;;
52668;SDS011;59898;52.786;6.892;2023-02-23T18:38:08;28.38;;;6.20;;
52668;SDS011;59898;52.786;6.892;2023-02-23T18:41:30;21.83;;;5.47;;
52668;SDS011;59898;52.786;6.892;2023-02-23T18:44:51;15.73;;;4.47;;
52668;SDS011;59898;52.786;6.892;2023-02-23T18:48:12;20.58;;;6.47;;
52668;SDS011;59898;52.786;6.892;2023-02-23T18:51:34;19.15;;;5.13;;
52668;SDS011;59898;52.786;6.892;2023-02-23T18:54:55;15.60;;;5.38;;
52668;SDS011;59898;52.786;6.892;2023-02-23T18:58:16;41.20;;;10.98;;
52668;SDS011;59898;52.786;6.892;2023-02-23T19:01:36;74.03;;;40.92;;
52668;SDS011;59898;52.786;6.892;2023-02-23T19:04:57;20.13;;;6.63;;
52668;SDS011;59898;52.786;6.892;2023-02-23T19:08:21;18.13;;;5.55;;
52668;SDS011;59898;52.786;6.892;2023-02-23T19:11:42;18.15;;;4.22;;
52668;SDS011;59898;52.786;6.892;2023-02-23T19:15:03;10.60;;;4.25;;
52668;SDS011;59898;52.786;6.892;2023-02-23T19:18:26;15.15;;;5.70;;
52668;SDS011;59898;52.786;6.892;2023-02-23T19:21:46;25.40;;;6.05;;
52668;SDS011;59898;52.786;6.892;2023-02-23T19:25:08;19.52;;;5.78;;
52668;SDS011;59898;52.786;6.892;2023-02-23T19:28:30;19.00;;;5.05;;
52668;SDS011;59898;52.786;6.892;2023-02-23T19:31:51;22.52;;;5.78;;
52668;SDS011;59898;52.786;6.892;2023-02-23T19:35:12;16.98;;;5.22;;
52668;SDS011;59898;52.786;6.892;2023-02-23T19:38:36;14.05;;;4.13;;
52668;SDS011;59898;52.786;6.892;2023-02-23T19:41:58;19.95;;;4.57;;
52668;SDS011;59898;52.786;6.892;2023-02-23T19:45:19;18.52;;;4.80;;
52668;SDS011;59898;52.786;6.892;2023-02-23T19:48:40;19.05;;;3.90;;
52668;SDS011;59898;52.786;6.892;2023-02-23T19:52:01;16.38;;;4.45;;
52668;SDS011;59898;52.786;6.892;2023-02-23T19:55:22;19.55;;;5.05;;
52668;SDS011;59898;52.786;6.892;2023-02-23T19:58:43;20.63;;;4.78;;
52668;SDS011;59898;52.786;6.892;2023-02-23T20:02:05;24.30;;;4.53;;
52668;SDS011;59898;52.786;6.892;2023-02-23T20:05:28;22.65;;;4.30;;
52668;SDS011;59898;52.786;6.892;2023-02-23T20:08:50;30.92;;;5.25;;
52668;SDS011;59898;52.786;6.892;2023-02-23T20:12:11;40.42;;;20.90;;
52668;SDS011;59898;52.786;6.892;2023-02-23T20:15:32;21.98;;;8.63;;
52668;SDS011;59898;52.786;6.892;2023-02-23T20:18:53;24.65;;;4.35;;
52668;SDS011;59898;52.786;6.892;2023-02-23T20:22:14;18.27;;;4.40;;
52668;SDS011;59898;52.786;6.892;2023-02-23T20:25:36;11.68;;;4.38;;
52668;SDS011;59898;52.786;6.892;2023-02-23T20:28:59;13.75;;;3.53;;
52668;SDS011;59898;52.786;6.892;2023-02-23T20:32:20;15.98;;;4.88;;
52668;SDS011;59898;52.786;6.892;2023-02-23T20:35:41;13.35;;;4.53;;
52668;SDS011;59898;52.786;6.892;2023-02-23T20:39:03;20.98;;;5.03;;
52668;SDS011;59898;52.786;6.892;2023-02-23T20:42:24;16.85;;;3.85;;
52668;SDS011;59898;52.786;6.892;2023-02-23T20:45:47;17.98;;;4.20;;
52668;SDS011;59898;52.786;6.892;2023-02-23T20:49:08;15.82;;;4.63;;
52668;SDS011;59898;52.786;6.892;2023-02-23T20:52:29;9.07;;;4.43;;
52668;SDS011;59898;52.786;6.892;2023-02-23T20:55:51;12.85;;;3.92;;
52668;SDS011;59898;52.786;6.892;2023-02-23T20:59:12;15.07;;;4.03;;
52668;SDS011;59898;52.786;6.892;2023-02-23T21:02:34;18.73;;;4.45;;
52668;SDS011;59898;52.786;6.892;2023-02-23T21:05:56;10.70;;;3.50;;
52668;SDS011;59898;52.786;6.892;2023-02-23T21:09:17;13.15;;;4.43;;
52668;SDS011;59898;52.786;6.892;2023-02-23T21:12:38;16.85;;;3.97;;
52668;SDS011;59898;52.786;6.892;2023-02-23T21:15:58;12.65;;;3.65;;
52668;SDS011;59898;52.786;6.892;2023-02-23T21:19:20;16.55;;;3.90;;
52668;SDS011;59898;52.786;6.892;2023-02-23T21:22:41;17.85;;;4.25;;
52668;SDS011;59898;52.786;6.892;2023-02-23T21:26:02;20.17;;;4.40;;
52668;SDS011;59898;52.786;6.892;2023-02-23T21:29:32;18.33;;;4.28;;
52668;SDS011;59898;52.786;6.892;2023-02-23T21:32:53;14.80;;;4.00;;
52668;SDS011;59898;52.786;6.892;2023-02-23T21:36:15;34.53;;;18.10;;
52668;SDS011;59898;52.786;6.892;2023-02-23T21:39:35;104.28;;;57.00;;
52668;SDS011;59898;52.786;6.892;2023-02-23T21:42:57;20.42;;;7.40;;
52668;SDS011;59898;52.786;6.892;2023-02-23T21:46:17;18.60;;;5.47;;
52668;SDS011;59898;52.786;6.892;2023-02-23T21:49:40;10.25;;;3.97;;
52668;SDS011;59898;52.786;6.892;2023-02-23T21:53:01;14.20;;;3.80;;
52668;SDS011;59898;52.786;6.892;2023-02-23T21:56:22;21.33;;;4.68;;
52668;SDS011;59898;52.786;6.892;2023-02-23T21:59:42;14.65;;;4.78;;
52668;SDS011;59898;52.786;6.892;2023-02-23T22:03:03;17.63;;;5.00;;
52668;SDS011;59898;52.786;6.892;2023-02-23T22:06:25;13.98;;;4.40;;
52668;SDS011;59898;52.786;6.892;2023-02-23T22:09:47;12.07;;;3.85;;
52668;SDS011;59898;52.786;6.892;2023-02-23T22:13:08;15.32;;;3.70;;